18.02.2019

Aktuelles

Ausz├╝ge aus Reiseberichten unsere Mitglieder

kalifornien4
Reiseberichte

Kalifornien von oben

Eine Woche Zwischenstop in Santa Barbara sollte von uns Sichtfliegern unbedingt zu einem Erkundungsflug dieses vielf├Ąltigen und abwechslungsreichen Landstriches genutzt werden. Der Airport von Santa Barbara, KSBA, liegt einige Meilen westlich der Stadt. [Mehr …]

Reiseberichte

Rundflug durchs Paradies – Tahiti

Die Eindr├╝cke, die Manfred Kunz beim Fliegen ├╝ber Tahiti schildert, sind atemberaubend und die Bilder, die dabei entstanden sind machen einfach nur neidisch – nat├╝rlich im postiven Sinn! Und das nicht nur wegen des sch├Ânen, warmen Wetters dort „unten“! Traumhafte Highlights die das Fliegerherz h├Âher schlagen lassen… [Mehr …]

ukbild1
Reiseberichte

Flug nach Frankreich

In seinem Reisebericht beschreibt Ulrich K├Âgler in seiner am├╝santen und unverwechselbaren Art seine Erlebnisse und Erfahrungen, die er, zusammen mit seiner Frau, bei seinem Flug im September 2004 nach „Brie Champniers“ (LFBU) bei Angouleme, was etwa 100km nord├Âstlich von Bordeaux liegt, gemacht hat. [Mehr …]

Flugzeug-Reservierung

Neueste Beitr├Ąge

METAR EDQM

EDQM 181020Z 15004KT CAVOK 10/01 Q1021